Impacts TAF Board
For situational awareness. Not to be used for flight planning purposes.
IDs:

KTCS - Truth or Consequence, NM, US

Issued at 1120 UTC 30 Oct 2020
Updated at 1719 UTC 30 Oct 2020
Potential Impact None Slight Moderate High
Time1653Z 30/18Z 30/19Z 30/20Z 30/21Z 30/22Z 30/23Z 31/00Z 31/01Z 31/02Z 31/03Z 31/04Z 31/05Z 31/06Z>>
Type OBS PRVL PRVL PRVL PRVL PRVL PRVL PRVL PRVL PRVL PRVL PRVL PRVL PRVL
VIS 10 >6 >6 >6 >6 >6 >6 >6 >6 >6 >6 >6 >6 >6
CIG -- -- -- -- -- -- -- -- -- -- -- -- -- --
Cover CLR SCT SCT SCT SCT SCT SCT SCT SCT SCT SCT SCT SCT SCT
FltCat VFR VFR VFR VFR VFR VFR VFR VFR VFR VFR VFR VFR VFR VFR
WX -- -- -- -- -- -- -- -- -- -- -- -- -- --
WDir VRB 300 300 300 180 180 180 180 180 180 180 180 VRB VRB
WSpd 0 6 6 6 8 8 8 8 8 8 8 8 4 4
WGst -- -- -- -- -- -- -- -- -- -- -- -- -- --
Raw TAF
KTCS 301120Z 3012/3112 30006KT P6SM SCT250
  FM302100 18008KT P6SM SCT250
  FM310500 VRB04KT P6SM SCT250


Raw METAR
KTCS 301653Z AUTO 00000KT 10SM CLR 14/02 A3030 RMK AO2 SLP217 T01390022
KTCS 301553Z AUTO 00000KT 10SM CLR 12/03 A3031 RMK AO2 SLP227 T01220028
KTCS 301453Z AUTO 02005KT 10SM CLR 09/02 A3031 RMK AO2 SLP227 T00890022 53007

METAR Board
Radar Display
Forecast Discussion
For situational awareness. Not to be used for flight planning purposes.